sensor_id;sensor_type;location;lat;lon;timestamp;P1;durP1;ratioP1;P2;durP2;ratioP2
52015;SDS011;38032;53.326;6.472;2023-03-01T00:00:54;36.75;;;7.00;;
52015;SDS011;38032;53.326;6.472;2023-03-01T00:03:20;53.58;;;7.90;;
52015;SDS011;38032;53.326;6.472;2023-03-01T00:05:47;167.30;;;13.98;;
52015;SDS011;38032;53.326;6.472;2023-03-01T00:08:13;67.22;;;8.45;;
52015;SDS011;38032;53.326;6.472;2023-03-01T00:10:39;43.10;;;8.30;;
52015;SDS011;38032;53.326;6.472;2023-03-01T00:13:05;69.75;;;9.20;;
52015;SDS011;38032;53.326;6.472;2023-03-01T00:15:31;54.88;;;7.55;;
52015;SDS011;38032;53.326;6.472;2023-03-01T00:17:57;79.35;;;8.90;;
52015;SDS011;38032;53.326;6.472;2023-03-01T00:20:23;223.48;;;17.20;;
52015;SDS011;38032;53.326;6.472;2023-03-01T00:22:49;46.50;;;8.52;;
52015;SDS011;38032;53.326;6.472;2023-03-01T00:25:15;97.60;;;10.57;;
52015;SDS011;38032;53.326;6.472;2023-03-01T00:27:41;177.45;;;11.90;;
52015;SDS011;38032;53.326;6.472;2023-03-01T00:30:07;51.30;;;8.32;;
52015;SDS011;38032;53.326;6.472;2023-03-01T00:32:33;135.45;;;13.50;;
52015;SDS011;38032;53.326;6.472;2023-03-01T00:34:59;112.90;;;11.88;;
52015;SDS011;38032;53.326;6.472;2023-03-01T00:37:25;132.43;;;11.95;;
52015;SDS011;38032;53.326;6.472;2023-03-01T00:39:51;132.38;;;15.02;;
52015;SDS011;38032;53.326;6.472;2023-03-01T00:42:17;62.33;;;11.52;;
52015;SDS011;38032;53.326;6.472;2023-03-01T00:44:43;111.10;;;11.68;;
52015;SDS011;38032;53.326;6.472;2023-03-01T00:47:09;92.78;;;11.30;;
52015;SDS011;38032;53.326;6.472;2023-03-01T00:49:35;108.70;;;11.45;;
52015;SDS011;38032;53.326;6.472;2023-03-01T00:52:01;55.33;;;9.07;;
52015;SDS011;38032;53.326;6.472;2023-03-01T00:54:27;69.03;;;9.07;;
52015;SDS011;38032;53.326;6.472;2023-03-01T00:56:53;37.65;;;7.85;;
52015;SDS011;38032;53.326;6.472;2023-03-01T00:59:19;77.07;;;9.02;;
52015;SDS011;38032;53.326;6.472;2023-03-01T01:01:44;25.27;;;6.45;;
52015;SDS011;38032;53.326;6.472;2023-03-01T01:04:11;27.50;;;7.40;;
52015;SDS011;38032;53.326;6.472;2023-03-01T01:06:40;35.08;;;7.50;;
52015;SDS011;38032;53.326;6.472;2023-03-01T01:09:08;10.75;;;6.28;;
52015;SDS011;38032;53.326;6.472;2023-03-01T01:11:34;8.88;;;5.80;;
52015;SDS011;38032;53.326;6.472;2023-03-01T01:14:01;26.15;;;7.00;;
52015;SDS011;38032;53.326;6.472;2023-03-01T01:16:28;11.18;;;7.20;;
52015;SDS011;38032;53.326;6.472;2023-03-01T01:18:54;10.00;;;6.82;;
52015;SDS011;38032;53.326;6.472;2023-03-01T01:21:22;13.05;;;6.57;;
52015;SDS011;38032;53.326;6.472;2023-03-01T01:23:49;35.38;;;7.82;;
52015;SDS011;38032;53.326;6.472;2023-03-01T01:26:17;53.30;;;8.68;;
52015;SDS011;38032;53.326;6.472;2023-03-01T01:28:48;62.08;;;8.40;;
52015;SDS011;38032;53.326;6.472;2023-03-01T01:31:14;134.18;;;10.85;;
52015;SDS011;38032;53.326;6.472;2023-03-01T01:33:40;62.80;;;8.20;;
52015;SDS011;38032;53.326;6.472;2023-03-01T01:36:07;140.40;;;12.18;;
52015;SDS011;38032;53.326;6.472;2023-03-01T01:38:34;93.18;;;10.55;;
52015;SDS011;38032;53.326;6.472;2023-03-01T01:41:01;78.47;;;9.23;;
52015;SDS011;38032;53.326;6.472;2023-03-01T01:43:29;33.72;;;6.88;;
52015;SDS011;38032;53.326;6.472;2023-03-01T01:46:01;36.25;;;7.07;;
52015;SDS011;38032;53.326;6.472;2023-03-01T01:48:34;49.78;;;7.50;;
52015;SDS011;38032;53.326;6.472;2023-03-01T01:51:06;28.25;;;7.53;;
52015;SDS011;38032;53.326;6.472;2023-03-01T01:53:38;147.68;;;11.30;;
52015;SDS011;38032;53.326;6.472;2023-03-01T01:56:05;60.95;;;7.78;;
52015;SDS011;38032;53.326;6.472;2023-03-01T01:58:33;42.53;;;6.32;;
52015;SDS011;38032;53.326;6.472;2023-03-01T02:01:00;102.43;;;8.82;;
52015;SDS011;38032;53.326;6.472;2023-03-01T02:03:27;83.82;;;9.35;;
52015;SDS011;38032;53.326;6.472;2023-03-01T02:06:02;33.03;;;6.95;;
52015;SDS011;38032;53.326;6.472;2023-03-01T02:08:32;115.40;;;10.23;;
52015;SDS011;38032;53.326;6.472;2023-03-01T02:11:02;74.40;;;8.38;;
52015;SDS011;38032;53.326;6.472;2023-03-01T02:13:30;102.10;;;11.13;;
52015;SDS011;38032;53.326;6.472;2023-03-01T02:15:57;122.60;;;10.18;;
52015;SDS011;38032;53.326;6.472;2023-03-01T02:18:23;42.75;;;5.82;;
52015;SDS011;38032;53.326;6.472;2023-03-01T02:20:58;37.90;;;6.80;;
52015;SDS011;38032;53.326;6.472;2023-03-01T02:23:32;42.72;;;6.75;;
52015;SDS011;38032;53.326;6.472;2023-03-01T02:28:40;18.38;;;5.80;;
52015;SDS011;38032;53.326;6.472;2023-03-01T02:31:08;45.13;;;6.78;;
52015;SDS011;38032;53.326;6.472;2023-03-01T02:33:55;39.60;;;5.38;;
52015;SDS011;38032;53.326;6.472;2023-03-01T02:36:23;17.85;;;4.78;;
52015;SDS011;38032;53.326;6.472;2023-03-01T02:38:53;26.75;;;5.10;;
52015;SDS011;38032;53.326;6.472;2023-03-01T02:41:22;27.67;;;5.63;;
52015;SDS011;38032;53.326;6.472;2023-03-01T02:43:50;28.20;;;5.05;;
52015;SDS011;38032;53.326;6.472;2023-03-01T02:46:17;19.85;;;5.50;;
52015;SDS011;38032;53.326;6.472;2023-03-01T02:48:46;32.47;;;5.80;;
52015;SDS011;38032;53.326;6.472;2023-03-01T02:56:33;73.18;;;7.90;;
52015;SDS011;38032;53.326;6.472;2023-03-01T02:58:59;83.45;;;8.45;;
52015;SDS011;38032;53.326;6.472;2023-03-01T03:01:26;83.28;;;8.00;;
52015;SDS011;38032;53.326;6.472;2023-03-01T03:04:03;75.45;;;7.97;;
52015;SDS011;38032;53.326;6.472;2023-03-01T03:06:30;131.18;;;10.65;;
52015;SDS011;38032;53.326;6.472;2023-03-01T03:08:56;29.95;;;6.80;;
52015;SDS011;38032;53.326;6.472;2023-03-01T03:11:22;37.42;;;6.28;;
52015;SDS011;38032;53.326;6.472;2023-03-01T03:13:48;20.98;;;5.95;;
52015;SDS011;38032;53.326;6.472;2023-03-01T03:16:14;27.50;;;6.40;;
52015;SDS011;38032;53.326;6.472;2023-03-01T03:18:40;26.80;;;6.43;;
52015;SDS011;38032;53.326;6.472;2023-03-01T03:21:08;33.08;;;6.88;;
52015;SDS011;38032;53.326;6.472;2023-03-01T03:23:35;27.33;;;6.13;;
52015;SDS011;38032;53.326;6.472;2023-03-01T03:26:02;22.90;;;5.80;;
52015;SDS011;38032;53.326;6.472;2023-03-01T03:28:29;21.60;;;6.40;;
52015;SDS011;38032;53.326;6.472;2023-03-01T03:31:05;23.52;;;6.40;;
52015;SDS011;38032;53.326;6.472;2023-03-01T03:33:32;30.98;;;6.30;;
52015;SDS011;38032;53.326;6.472;2023-03-01T03:35:58;51.78;;;7.18;;
52015;SDS011;38032;53.326;6.472;2023-03-01T03:38:24;15.50;;;6.85;;
52015;SDS011;38032;53.326;6.472;2023-03-01T03:40:51;120.20;;;11.93;;
52015;SDS011;38032;53.326;6.472;2023-03-01T03:43:27;99.93;;;9.43;;
52015;SDS011;38032;53.326;6.472;2023-03-01T03:45:54;104.10;;;10.38;;
52015;SDS011;38032;53.326;6.472;2023-03-01T03:48:22;110.18;;;10.27;;
52015;SDS011;38032;53.326;6.472;2023-03-01T03:50:49;94.30;;;9.50;;
52015;SDS011;38032;53.326;6.472;2023-03-01T03:53:17;65.68;;;8.23;;
52015;SDS011;38032;53.326;6.472;2023-03-01T03:55:44;57.38;;;8.13;;
52015;SDS011;38032;53.326;6.472;2023-03-01T03:58:10;48.55;;;7.75;;
52015;SDS011;38032;53.326;6.472;2023-03-01T04:00:37;53.10;;;7.95;;
52015;SDS011;38032;53.326;6.472;2023-03-01T04:03:05;23.00;;;6.25;;
52015;SDS011;38032;53.326;6.472;2023-03-01T04:05:31;7.95;;;5.65;;
52015;SDS011;38032;53.326;6.472;2023-03-01T04:07:57;9.15;;;5.82;;
52015;SDS011;38032;53.326;6.472;2023-03-01T04:10:33;14.65;;;6.10;;
52015;SDS011;38032;53.326;6.472;2023-03-01T04:13:02;35.42;;;7.88;;
52015;SDS011;38032;53.326;6.472;2023-03-01T04:15:30;58.42;;;8.30;;
52015;SDS011;38032;53.326;6.472;2023-03-01T04:17:57;61.15;;;9.20;;
52015;SDS011;38032;53.326;6.472;2023-03-01T04:20:25;10.25;;;6.30;;
52015;SDS011;38032;53.326;6.472;2023-03-01T04:22:57;93.57;;;9.70;;
52015;SDS011;38032;53.326;6.472;2023-03-01T04:25:37;13.23;;;6.03;;
52015;SDS011;38032;53.326;6.472;2023-03-01T04:28:04;13.38;;;6.05;;
52015;SDS011;38032;53.326;6.472;2023-03-01T04:30:30;14.27;;;5.80;;
52015;SDS011;38032;53.326;6.472;2023-03-01T04:33:02;14.63;;;6.13;;
52015;SDS011;38032;53.326;6.472;2023-03-01T04:35:30;26.95;;;6.50;;
52015;SDS011;38032;53.326;6.472;2023-03-01T04:37:57;38.75;;;6.80;;
52015;SDS011;38032;53.326;6.472;2023-03-01T04:40:23;43.88;;;7.28;;
52015;SDS011;38032;53.326;6.472;2023-03-01T04:42:49;19.48;;;6.03;;
52015;SDS011;38032;53.326;6.472;2023-03-01T04:45:15;8.57;;;5.53;;
52015;SDS011;38032;53.326;6.472;2023-03-01T04:47:41;6.72;;;5.53;;
52015;SDS011;38032;53.326;6.472;2023-03-01T04:50:10;21.65;;;6.43;;
52015;SDS011;38032;53.326;6.472;2023-03-01T04:52:37;28.65;;;6.20;;
52015;SDS011;38032;53.326;6.472;2023-03-01T04:55:03;24.70;;;7.35;;
52015;SDS011;38032;53.326;6.472;2023-03-01T04:57:30;25.33;;;7.45;;
52015;SDS011;38032;53.326;6.472;2023-03-01T04:59:56;16.05;;;6.70;;
52015;SDS011;38032;53.326;6.472;2023-03-01T05:02:22;65.72;;;8.13;;
52015;SDS011;38032;53.326;6.472;2023-03-01T05:04:48;24.30;;;7.60;;
52015;SDS011;38032;53.326;6.472;2023-03-01T05:07:14;12.40;;;6.38;;
52015;SDS011;38032;53.326;6.472;2023-03-01T05:09:45;37.15;;;7.75;;
52015;SDS011;38032;53.326;6.472;2023-03-01T05:12:11;32.28;;;7.45;;
52015;SDS011;38032;53.326;6.472;2023-03-01T05:14:38;42.72;;;7.97;;
52015;SDS011;38032;53.326;6.472;2023-03-01T05:17:05;47.72;;;8.07;;
52015;SDS011;38032;53.326;6.472;2023-03-01T05:19:31;42.05;;;7.88;;
52015;SDS011;38032;53.326;6.472;2023-03-01T05:21:58;27.23;;;7.00;;
52015;SDS011;38032;53.326;6.472;2023-03-01T05:24:30;13.13;;;6.15;;
52015;SDS011;38032;53.326;6.472;2023-03-01T05:26:58;31.10;;;7.93;;
52015;SDS011;38032;53.326;6.472;2023-03-01T05:29:24;19.13;;;6.25;;
52015;SDS011;38032;53.326;6.472;2023-03-01T05:31:53;25.35;;;7.25;;
52015;SDS011;38032;53.326;6.472;2023-03-01T05:34:23;7.43;;;5.93;;
52015;SDS011;38032;53.326;6.472;2023-03-01T05:36:52;7.57;;;5.88;;
52015;SDS011;38032;53.326;6.472;2023-03-01T05:39:22;8.30;;;6.32;;
52015;SDS011;38032;53.326;6.472;2023-03-01T05:41:53;6.88;;;5.60;;
52015;SDS011;38032;53.326;6.472;2023-03-01T05:44:20;9.52;;;6.78;;
52015;SDS011;38032;53.326;6.472;2023-03-01T05:46:47;8.98;;;6.00;;
52015;SDS011;38032;53.326;6.472;2023-03-01T05:49:13;9.90;;;6.28;;
52015;SDS011;38032;53.326;6.472;2023-03-01T05:51:39;9.48;;;6.60;;
52015;SDS011;38032;53.326;6.472;2023-03-01T05:54:06;10.20;;;6.68;;
52015;SDS011;38032;53.326;6.472;2023-03-01T05:56:33;8.73;;;6.20;;
52015;SDS011;38032;53.326;6.472;2023-03-01T05:58:59;7.70;;;5.60;;
52015;SDS011;38032;53.326;6.472;2023-03-01T06:01:26;9.23;;;6.38;;
52015;SDS011;38032;53.326;6.472;2023-03-01T06:03:52;9.45;;;6.38;;
52015;SDS011;38032;53.326;6.472;2023-03-01T06:06:18;9.05;;;6.65;;
52015;SDS011;38032;53.326;6.472;2023-03-01T06:08:43;9.10;;;6.22;;
52015;SDS011;38032;53.326;6.472;2023-03-01T06:11:09;9.15;;;6.82;;
52015;SDS011;38032;53.326;6.472;2023-03-01T06:13:35;8.95;;;6.47;;
52015;SDS011;38032;53.326;6.472;2023-03-01T06:16:04;9.55;;;5.93;;
52015;SDS011;38032;53.326;6.472;2023-03-01T06:18:31;9.25;;;6.30;;
52015;SDS011;38032;53.326;6.472;2023-03-01T06:20:57;9.02;;;5.72;;
52015;SDS011;38032;53.326;6.472;2023-03-01T06:23:23;7.03;;;5.43;;
52015;SDS011;38032;53.326;6.472;2023-03-01T06:25:49;9.43;;;6.38;;
52015;SDS011;38032;53.326;6.472;2023-03-01T06:28:16;8.68;;;6.20;;
52015;SDS011;38032;53.326;6.472;2023-03-01T06:30:43;6.68;;;4.97;;
52015;SDS011;38032;53.326;6.472;2023-03-01T06:33:09;7.88;;;4.90;;
52015;SDS011;38032;53.326;6.472;2023-03-01T06:35:34;8.23;;;6.20;;
52015;SDS011;38032;53.326;6.472;2023-03-01T06:38:01;9.60;;;6.45;;
52015;SDS011;38032;53.326;6.472;2023-03-01T06:40:28;8.25;;;6.00;;
52015;SDS011;38032;53.326;6.472;2023-03-01T06:42:56;9.00;;;6.65;;
52015;SDS011;38032;53.326;6.472;2023-03-01T06:45:22;11.10;;;7.22;;
52015;SDS011;38032;53.326;6.472;2023-03-01T06:47:49;10.68;;;7.50;;
52015;SDS011;38032;53.326;6.472;2023-03-01T06:50:16;9.77;;;6.68;;
52015;SDS011;38032;53.326;6.472;2023-03-01T06:52:43;11.57;;;7.57;;
52015;SDS011;38032;53.326;6.472;2023-03-01T06:55:10;9.60;;;6.72;;
52015;SDS011;38032;53.326;6.472;2023-03-01T06:57:36;11.95;;;8.00;;
52015;SDS011;38032;53.326;6.472;2023-03-01T07:00:03;10.07;;;6.78;;
52015;SDS011;38032;53.326;6.472;2023-03-01T07:02:30;11.45;;;8.02;;
52015;SDS011;38032;53.326;6.472;2023-03-01T07:04:56;11.30;;;7.55;;
52015;SDS011;38032;53.326;6.472;2023-03-01T07:07:21;11.68;;;7.72;;
52015;SDS011;38032;53.326;6.472;2023-03-01T07:09:48;11.20;;;7.53;;
52015;SDS011;38032;53.326;6.472;2023-03-01T07:12:15;10.43;;;6.65;;
52015;SDS011;38032;53.326;6.472;2023-03-01T07:14:41;10.93;;;7.30;;
52015;SDS011;38032;53.326;6.472;2023-03-01T07:17:08;9.82;;;7.00;;
52015;SDS011;38032;53.326;6.472;2023-03-01T07:19:34;11.38;;;7.70;;
52015;SDS011;38032;53.326;6.472;2023-03-01T07:22:00;11.00;;;7.30;;
52015;SDS011;38032;53.326;6.472;2023-03-01T07:24:26;10.88;;;7.40;;
52015;SDS011;38032;53.326;6.472;2023-03-01T07:26:52;12.80;;;8.63;;
52015;SDS011;38032;53.326;6.472;2023-03-01T07:29:18;12.63;;;8.50;;
52015;SDS011;38032;53.326;6.472;2023-03-01T07:31:44;13.15;;;8.18;;
52015;SDS011;38032;53.326;6.472;2023-03-01T07:34:10;12.73;;;8.70;;
52015;SDS011;38032;53.326;6.472;2023-03-01T07:36:36;12.90;;;8.35;;
52015;SDS011;38032;53.326;6.472;2023-03-01T07:39:04;12.85;;;8.70;;
52015;SDS011;38032;53.326;6.472;2023-03-01T07:41:30;10.63;;;8.50;;
52015;SDS011;38032;53.326;6.472;2023-03-01T07:43:56;9.88;;;8.10;;
52015;SDS011;38032;53.326;6.472;2023-03-01T07:46:22;10.18;;;8.13;;
52015;SDS011;38032;53.326;6.472;2023-03-01T07:48:48;10.40;;;8.02;;
52015;SDS011;38032;53.326;6.472;2023-03-01T07:51:13;11.85;;;8.93;;
52015;SDS011;38032;53.326;6.472;2023-03-01T07:53:39;13.07;;;9.52;;
52015;SDS011;38032;53.326;6.472;2023-03-01T07:56:06;11.75;;;9.10;;
52015;SDS011;38032;53.326;6.472;2023-03-01T07:58:35;12.15;;;9.25;;
52015;SDS011;38032;53.326;6.472;2023-03-01T08:01:04;12.48;;;9.68;;
52015;SDS011;38032;53.326;6.472;2023-03-01T08:03:31;12.38;;;9.10;;
52015;SDS011;38032;53.326;6.472;2023-03-01T08:05:59;14.05;;;10.35;;
52015;SDS011;38032;53.326;6.472;2023-03-01T08:08:26;15.20;;;10.35;;
52015;SDS011;38032;53.326;6.472;2023-03-01T08:10:52;12.75;;;9.43;;
52015;SDS011;38032;53.326;6.472;2023-03-01T08:13:22;14.23;;;9.50;;
52015;SDS011;38032;53.326;6.472;2023-03-01T08:15:49;14.20;;;9.73;;
52015;SDS011;38032;53.326;6.472;2023-03-01T08:18:16;15.02;;;10.38;;
52015;SDS011;38032;53.326;6.472;2023-03-01T08:20:42;12.85;;;9.43;;
52015;SDS011;38032;53.326;6.472;2023-03-01T08:23:08;10.70;;;7.63;;
52015;SDS011;38032;53.326;6.472;2023-03-01T08:25:34;12.98;;;9.27;;
52015;SDS011;38032;53.326;6.472;2023-03-01T08:28:00;11.77;;;8.68;;
52015;SDS011;38032;53.326;6.472;2023-03-01T08:30:26;11.57;;;8.57;;
52015;SDS011;38032;53.326;6.472;2023-03-01T08:32:52;9.73;;;7.97;;
52015;SDS011;38032;53.326;6.472;2023-03-01T08:35:18;11.63;;;8.23;;
52015;SDS011;38032;53.326;6.472;2023-03-01T08:37:44;10.13;;;7.70;;
52015;SDS011;38032;53.326;6.472;2023-03-01T08:40:10;10.30;;;7.63;;
52015;SDS011;38032;53.326;6.472;2023-03-01T08:42:38;9.68;;;7.47;;
52015;SDS011;38032;53.326;6.472;2023-03-01T08:45:05;9.15;;;7.72;;
52015;SDS011;38032;53.326;6.472;2023-03-01T08:47:32;12.10;;;8.60;;
52015;SDS011;38032;53.326;6.472;2023-03-01T08:49:59;11.90;;;8.48;;
52015;SDS011;38032;53.326;6.472;2023-03-01T08:52:25;10.02;;;8.00;;
52015;SDS011;38032;53.326;6.472;2023-03-01T08:54:52;11.63;;;8.40;;
52015;SDS011;38032;53.326;6.472;2023-03-01T08:57:18;14.30;;;10.70;;
52015;SDS011;38032;53.326;6.472;2023-03-01T08:59:44;13.15;;;9.55;;
52015;SDS011;38032;53.326;6.472;2023-03-01T09:02:11;16.67;;;11.25;;
52015;SDS011;38032;53.326;6.472;2023-03-01T09:04:39;16.42;;;11.77;;
52015;SDS011;38032;53.326;6.472;2023-03-01T09:07:06;15.77;;;12.40;;
52015;SDS011;38032;53.326;6.472;2023-03-01T09:09:32;13.45;;;11.57;;
52015;SDS011;38032;53.326;6.472;2023-03-01T09:11:58;14.68;;;12.27;;
52015;SDS011;38032;53.326;6.472;2023-03-01T09:14:24;16.67;;;12.80;;
52015;SDS011;38032;53.326;6.472;2023-03-01T09:16:50;15.20;;;12.05;;
52015;SDS011;38032;53.326;6.472;2023-03-01T09:19:15;19.33;;;14.07;;
52015;SDS011;38032;53.326;6.472;2023-03-01T09:21:41;18.60;;;14.68;;
52015;SDS011;38032;53.326;6.472;2023-03-01T09:24:18;18.75;;;16.05;;
52015;SDS011;38032;53.326;6.472;2023-03-01T09:26:45;18.63;;;15.25;;
52015;SDS011;38032;53.326;6.472;2023-03-01T09:29:11;15.70;;;14.02;;
52015;SDS011;38032;53.326;6.472;2023-03-01T09:31:38;16.42;;;14.13;;
52015;SDS011;38032;53.326;6.472;2023-03-01T09:34:04;15.02;;;13.43;;
52015;SDS011;38032;53.326;6.472;2023-03-01T09:36:30;16.42;;;13.80;;
52015;SDS011;38032;53.326;6.472;2023-03-01T09:38:57;17.20;;;13.98;;
52015;SDS011;38032;53.326;6.472;2023-03-01T09:46:40;17.23;;;15.38;;
52015;SDS011;38032;53.326;6.472;2023-03-01T09:49:10;16.55;;;14.57;;
52015;SDS011;38032;53.326;6.472;2023-03-01T09:51:42;15.00;;;13.50;;
52015;SDS011;38032;53.326;6.472;2023-03-01T09:54:15;17.33;;;15.05;;
52015;SDS011;38032;53.326;6.472;2023-03-01T09:56:41;15.57;;;13.40;;
52015;SDS011;38032;53.326;6.472;2023-03-01T10:04:28;16.40;;;14.68;;
52015;SDS011;38032;53.326;6.472;2023-03-01T10:09:36;16.02;;;14.32;;
52015;SDS011;38032;53.326;6.472;2023-03-01T10:12:08;16.13;;;14.05;;
52015;SDS011;38032;53.326;6.472;2023-03-01T10:14:38;14.55;;;13.05;;
52015;SDS011;38032;53.326;6.472;2023-03-01T10:17:12;14.50;;;13.00;;
52015;SDS011;38032;53.326;6.472;2023-03-01T10:19:46;13.80;;;12.25;;
52015;SDS011;38032;53.326;6.472;2023-03-01T10:22:15;14.13;;;12.48;;
52015;SDS011;38032;53.326;6.472;2023-03-01T10:27:29;13.85;;;12.30;;
52015;SDS011;38032;53.326;6.472;2023-03-01T10:30:13;12.75;;;11.52;;
52015;SDS011;38032;53.326;6.472;2023-03-01T10:32:45;14.73;;;13.23;;
52015;SDS011;38032;53.326;6.472;2023-03-01T10:35:16;13.20;;;11.82;;
52015;SDS011;38032;53.326;6.472;2023-03-01T10:38:03;12.00;;;10.68;;
52015;SDS011;38032;53.326;6.472;2023-03-01T10:40:41;12.95;;;10.80;;
52015;SDS011;38032;53.326;6.472;2023-03-01T10:43:18;13.20;;;11.32;;
52015;SDS011;38032;53.326;6.472;2023-03-01T10:45:44;14.73;;;12.40;;
52015;SDS011;38032;53.326;6.472;2023-03-01T10:48:12;12.80;;;11.50;;
52015;SDS011;38032;53.326;6.472;2023-03-01T10:50:45;11.73;;;10.50;;
52015;SDS011;38032;53.326;6.472;2023-03-01T10:53:21;11.20;;;9.23;;
52015;SDS011;38032;53.326;6.472;2023-03-01T10:56:06;11.23;;;9.50;;
52015;SDS011;38032;53.326;6.472;2023-03-01T10:58:35;12.57;;;11.00;;
52015;SDS011;38032;53.326;6.472;2023-03-01T11:01:05;15.60;;;11.18;;
52015;SDS011;38032;53.326;6.472;2023-03-01T11:06:31;10.57;;;9.20;;
52015;SDS011;38032;53.326;6.472;2023-03-01T11:09:01;11.07;;;9.68;;
52015;SDS011;38032;53.326;6.472;2023-03-01T11:11:40;12.73;;;10.35;;
52015;SDS011;38032;53.326;6.472;2023-03-01T11:14:12;10.50;;;9.18;;
52015;SDS011;38032;53.326;6.472;2023-03-01T11:21:35;11.35;;;9.77;;
52015;SDS011;38032;53.326;6.472;2023-03-01T11:24:13;11.15;;;9.57;;
52015;SDS011;38032;53.326;6.472;2023-03-01T11:26:41;9.60;;;8.55;;
52015;SDS011;38032;53.326;6.472;2023-03-01T11:29:18;10.35;;;7.78;;
52015;SDS011;38032;53.326;6.472;2023-03-01T11:31:59;8.45;;;6.28;;
52015;SDS011;38032;53.326;6.472;2023-03-01T11:36:59;8.43;;;6.95;;
52015;SDS011;38032;53.326;6.472;2023-03-01T11:39:31;7.97;;;6.82;;
52015;SDS011;38032;53.326;6.472;2023-03-01T11:44:56;7.95;;;6.72;;
52015;SDS011;38032;53.326;6.472;2023-03-01T11:50:09;9.75;;;8.15;;
52015;SDS011;38032;53.326;6.472;2023-03-01T11:52:46;11.63;;;8.65;;
52015;SDS011;38032;53.326;6.472;2023-03-01T11:55:17;9.68;;;8.32;;
52015;SDS011;38032;53.326;6.472;2023-03-01T11:58:04;10.15;;;8.20;;
52015;SDS011;38032;53.326;6.472;2023-03-01T12:03:48;12.30;;;9.63;;
52015;SDS011;38032;53.326;6.472;2023-03-01T12:09:17;11.65;;;8.95;;
52015;SDS011;38032;53.326;6.472;2023-03-01T12:17:03;13.15;;;9.38;;
52015;SDS011;38032;53.326;6.472;2023-03-01T12:22:46;11.85;;;8.98;;
52015;SDS011;38032;53.326;6.472;2023-03-01T12:28:01;11.57;;;7.90;;
52015;SDS011;38032;53.326;6.472;2023-03-01T12:36:09;9.93;;;7.53;;
52015;SDS011;38032;53.326;6.472;2023-03-01T12:38:50;10.38;;;7.55;;
52015;SDS011;38032;53.326;6.472;2023-03-01T12:41:43;11.00;;;7.50;;
52015;SDS011;38032;53.326;6.472;2023-03-01T12:44:30;9.82;;;7.43;;
52015;SDS011;38032;53.326;6.472;2023-03-01T12:47:11;9.18;;;7.10;;
52015;SDS011;38032;53.326;6.472;2023-03-01T12:49:52;10.27;;;7.05;;
52015;SDS011;38032;53.326;6.472;2023-03-01T12:52:29;10.93;;;7.43;;
52015;SDS011;38032;53.326;6.472;2023-03-01T12:55:02;11.40;;;7.43;;
52015;SDS011;38032;53.326;6.472;2023-03-01T12:57:46;9.43;;;7.25;;
52015;SDS011;38032;53.326;6.472;2023-03-01T13:03:18;11.10;;;7.43;;
52015;SDS011;38032;53.326;6.472;2023-03-01T13:05:56;10.45;;;7.80;;
52015;SDS011;38032;53.326;6.472;2023-03-01T13:08:33;10.02;;;8.00;;
52015;SDS011;38032;53.326;6.472;2023-03-01T13:11:03;10.93;;;8.15;;
52015;SDS011;38032;53.326;6.472;2023-03-01T13:13:32;11.25;;;8.00;;
52015;SDS011;38032;53.326;6.472;2023-03-01T13:16:11;12.20;;;8.55;;
52015;SDS011;38032;53.326;6.472;2023-03-01T13:19:09;11.80;;;8.75;;
52015;SDS011;38032;53.326;6.472;2023-03-01T13:21:39;11.05;;;8.27;;
52015;SDS011;38032;53.326;6.472;2023-03-01T13:24:23;11.75;;;9.10;;
52015;SDS011;38032;53.326;6.472;2023-03-01T13:32:19;12.98;;;9.43;;
52015;SDS011;38032;53.326;6.472;2023-03-01T13:34:54;13.05;;;9.32;;
52015;SDS011;38032;53.326;6.472;2023-03-01T13:37:23;14.00;;;9.20;;
52015;SDS011;38032;53.326;6.472;2023-03-01T13:39:54;13.13;;;9.93;;
52015;SDS011;38032;53.326;6.472;2023-03-01T13:47:23;13.80;;;10.15;;
52015;SDS011;38032;53.326;6.472;2023-03-01T13:52:30;12.77;;;9.98;;
52015;SDS011;38032;53.326;6.472;2023-03-01T13:58:02;14.02;;;9.93;;
52015;SDS011;38032;53.326;6.472;2023-03-01T14:00:40;12.25;;;9.45;;
52015;SDS011;38032;53.326;6.472;2023-03-01T14:05:36;12.32;;;9.95;;
52015;SDS011;38032;53.326;6.472;2023-03-01T14:08:03;13.55;;;9.80;;
52015;SDS011;38032;53.326;6.472;2023-03-01T14:10:32;13.52;;;10.13;;
52015;SDS011;38032;53.326;6.472;2023-03-01T14:13:12;13.45;;;9.63;;
52015;SDS011;38032;53.326;6.472;2023-03-01T14:15:59;12.25;;;9.20;;
52015;SDS011;38032;53.326;6.472;2023-03-01T14:18:42;13.30;;;8.57;;
52015;SDS011;38032;53.326;6.472;2023-03-01T14:21:20;11.60;;;8.88;;
52015;SDS011;38032;53.326;6.472;2023-03-01T14:23:47;11.35;;;8.80;;
52015;SDS011;38032;53.326;6.472;2023-03-01T14:26:14;12.95;;;8.70;;
52015;SDS011;38032;53.326;6.472;2023-03-01T14:28:47;14.02;;;9.18;;
52015;SDS011;38032;53.326;6.472;2023-03-01T14:34:01;11.82;;;8.27;;
52015;SDS011;38032;53.326;6.472;2023-03-01T14:36:30;13.23;;;8.82;;
52015;SDS011;38032;53.326;6.472;2023-03-01T14:38:57;12.57;;;8.48;;
52015;SDS011;38032;53.326;6.472;2023-03-01T14:41:30;12.20;;;8.73;;
52015;SDS011;38032;53.326;6.472;2023-03-01T14:44:05;12.90;;;9.10;;
52015;SDS011;38032;53.326;6.472;2023-03-01T14:46:38;12.85;;;8.93;;
52015;SDS011;38032;53.326;6.472;2023-03-01T14:51:38;13.63;;;9.68;;
52015;SDS011;38032;53.326;6.472;2023-03-01T14:54:19;12.68;;;8.93;;
52015;SDS011;38032;53.326;6.472;2023-03-01T14:56:46;12.45;;;9.80;;
52015;SDS011;38032;53.326;6.472;2023-03-01T14:59:12;14.95;;;10.38;;
52015;SDS011;38032;53.326;6.472;2023-03-01T15:01:39;13.18;;;9.88;;
52015;SDS011;38032;53.326;6.472;2023-03-01T15:04:08;15.13;;;10.23;;
52015;SDS011;38032;53.326;6.472;2023-03-01T15:06:37;15.27;;;11.20;;
52015;SDS011;38032;53.326;6.472;2023-03-01T15:09:04;17.25;;;11.60;;
52015;SDS011;38032;53.326;6.472;2023-03-01T15:11:32;16.42;;;12.40;;
52015;SDS011;38032;53.326;6.472;2023-03-01T15:13:59;15.80;;;11.70;;
52015;SDS011;38032;53.326;6.472;2023-03-01T15:16:27;16.83;;;12.25;;
52015;SDS011;38032;53.326;6.472;2023-03-01T15:18:57;15.77;;;11.95;;
52015;SDS011;38032;53.326;6.472;2023-03-01T15:21:26;19.13;;;13.40;;
52015;SDS011;38032;53.326;6.472;2023-03-01T15:24:03;18.80;;;13.13;;
52015;SDS011;38032;53.326;6.472;2023-03-01T15:26:31;20.73;;;13.20;;
52015;SDS011;38032;53.326;6.472;2023-03-01T15:29:02;19.73;;;12.80;;
52015;SDS011;38032;53.326;6.472;2023-03-01T15:31:31;20.35;;;12.77;;
52015;SDS011;38032;53.326;6.472;2023-03-01T15:34:07;18.27;;;13.48;;
52015;SDS011;38032;53.326;6.472;2023-03-01T15:36:39;17.70;;;12.82;;
52015;SDS011;38032;53.326;6.472;2023-03-01T15:41:53;18.17;;;12.68;;
52015;SDS011;38032;53.326;6.472;2023-03-01T15:44:25;17.85;;;12.70;;
52015;SDS011;38032;53.326;6.472;2023-03-01T15:46:53;18.70;;;13.25;;
52015;SDS011;38032;53.326;6.472;2023-03-01T15:49:24;19.08;;;13.70;;
52015;SDS011;38032;53.326;6.472;2023-03-01T15:51:55;19.42;;;13.18;;
52015;SDS011;38032;53.326;6.472;2023-03-01T15:54:22;17.45;;;13.07;;
52015;SDS011;38032;53.326;6.472;2023-03-01T15:56:50;22.15;;;14.13;;
52015;SDS011;38032;53.326;6.472;2023-03-01T15:59:16;22.83;;;13.57;;
52015;SDS011;38032;53.326;6.472;2023-03-01T16:01:43;20.40;;;13.20;;
52015;SDS011;38032;53.326;6.472;2023-03-01T16:04:10;22.27;;;13.95;;
52015;SDS011;38032;53.326;6.472;2023-03-01T16:06:41;19.15;;;13.07;;
52015;SDS011;38032;53.326;6.472;2023-03-01T16:09:07;22.40;;;14.10;;
52015;SDS011;38032;53.326;6.472;2023-03-01T16:11:35;23.00;;;14.07;;
52015;SDS011;38032;53.326;6.472;2023-03-01T16:14:02;18.83;;;13.50;;